Time;durP1;ratioP1;P1;durP2;ratioP2;P2;SDS_P1;SDS_P2;PMS_P1;PMS_P2;Temp;Humidity;BMP_temperature;BMP_pressure;BME280_temperature;BME280_humidity;BME280_pressure;Samples;Min_cycle;Max_cycle;Signal;HPM_P1;HPM_P2
2022/05/22 00:01:51;;;;;;;2.10;1.25;;;;;;;7.91;92.71;99127.48;1785569;78;20890;-61
2022/05/22 00:04:18;;;;;;;2.00;1.35;;;;;;;7.87;92.71;99128.52;1810463;78;21078;-61
2022/05/22 00:06:44;;;;;;;3.17;1.20;;;;;;;7.81;92.87;99140.03;1810101;78;20910;-60
2022/05/22 00:09:11;;;;;;;2.37;1.20;;;;;;;7.78;93.26;99131.91;1808968;78;20871;-60
2022/05/22 00:11:38;;;;;;;1.70;1.40;;;;;;;7.75;92.98;99132.05;1780587;79;20958;-60
2022/05/22 00:14:05;;;;;;;6.30;1.12;;;;;;;7.74;93.18;99135.58;1812955;77;20891;-61
2022/05/22 00:16:37;;;;;;;2.53;1.30;;;;;;;7.73;92.74;99130.00;1802598;78;21165;-60
2022/05/22 00:19:05;;;;;;;2.33;1.42;;;;;;;7.71;92.57;99129.22;1774366;80;20937;-61
2022/05/22 00:21:33;;;;;;;1.15;1.05;;;;;;;7.67;92.80;99134.61;1817199;78;20909;-60
2022/05/22 00:24:00;;;;;;;1.52;1.05;;;;;;;7.66;92.67;99136.38;1800534;78;20847;-60
2022/05/22 00:26:26;;;;;;;2.43;1.57;;;;;;;7.65;92.54;99136.00;1795371;78;20980;-60
2022/05/22 00:28:53;;;;;;;2.03;1.13;;;;;;;7.66;92.67;99131.17;1800123;78;21840;-61
2022/05/22 00:31:20;;;;;;;2.17;1.40;;;;;;;7.69;92.61;99133.64;1803219;78;20918;-60
2022/05/22 00:33:47;;;;;;;1.90;0.98;;;;;;;7.71;92.51;99131.82;1805259;78;21075;-60
2022/05/22 00:36:14;;;;;;;1.50;1.10;;;;;;;7.75;92.38;99129.45;1801528;78;20965;-61
2022/05/22 00:38:41;;;;;;;1.98;1.20;;;;;;;7.76;92.44;99129.86;1803573;78;20867;-61
2022/05/22 00:41:08;;;;;;;2.17;1.20;;;;;;;7.78;92.20;99135.81;1797432;78;21079;-61
2022/05/22 00:43:38;;;;;;;1.90;1.00;;;;;;;7.76;92.24;99135.06;1802802;78;21209;-61
2022/05/22 00:46:08;;;;;;;2.25;1.47;;;;;;;7.74;92.11;99139.47;1786987;79;20952;-61
2022/05/22 00:48:35;;;;;;;1.30;0.95;;;;;;;7.72;92.03;99128.30;1786832;80;21032;-60
2022/05/22 00:51:19;;;;;;;1.52;1.05;;;;;;;7.71;91.99;99137.02;1788255;79;20890;-60
2022/05/22 00:53:56;;;;;;;3.40;1.50;;;;;;;7.67;92.07;99126.81;1797231;78;21049;-61
2022/05/22 00:56:33;;;;;;;1.30;1.20;;;;;;;7.59;92.06;99122.83;1803711;78;20898;-60
2022/05/22 00:58:57;;;;;;;2.90;1.20;;;;;;;7.61;92.24;99121.44;1803783;77;20923;-61
2022/05/22 01:01:27;;;;;;;4.15;1.20;;;;;;;7.55;92.28;99126.45;1806153;78;21488;-60
2022/05/22 01:03:55;;;;;;;1.12;0.98;;;;;;;7.55;92.17;99124.31;1778155;78;20966;-60
2022/05/22 01:06:24;;;;;;;4.67;1.50;;;;;;;7.55;92.38;99126.91;1798927;78;21011;-60
2022/05/22 01:08:51;;;;;;;1.20;1.00;;;;;;;7.55;92.46;99123.02;1789831;78;20902;-60
2022/05/22 01:11:23;;;;;;;2.65;1.25;;;;;;;7.56;92.54;99135.08;1803408;78;20946;-61
2022/05/22 01:13:56;;;;;;;1.17;1.05;;;;;;;7.58;92.68;99135.87;1810508;78;20888;-60
2022/05/22 01:16:25;;;;;;;1.98;1.50;;;;;;;7.56;93.04;99129.89;1795921;78;21544;-61
2022/05/22 01:18:55;;;;;;;1.30;1.15;;;;;;;7.54;92.73;99129.14;1802080;78;21133;-60
2022/05/22 01:21:26;;;;;;;2.25;1.37;;;;;;;7.52;92.77;99137.45;1798828;78;20860;-61
2022/05/22 01:23:54;;;;;;;1.22;1.10;;;;;;;7.50;92.68;99128.87;1798126;77;21390;-60
2022/05/22 01:26:23;;;;;;;2.70;1.22;;;;;;;7.46;92.51;99133.83;1763592;80;20958;-60
2022/05/22 01:28:50;;;;;;;1.90;0.95;;;;;;;7.43;92.38;99136.56;1774334;78;20914;-61
2022/05/22 01:31:18;;;;;;;2.00;1.30;;;;;;;7.38;92.31;99138.88;1812625;77;20930;-60
2022/05/22 01:33:44;;;;;;;;;;;;;;;7.35;92.19;99135.13;1800991;78;20883;-61
2022/05/22 01:36:15;;;;;;;2.42;1.32;;;;;;;7.31;92.14;99136.18;1792550;78;20092;-60
2022/05/22 01:38:44;;;;;;;3.35;1.55;;;;;;;7.27;92.29;99137.20;1792535;77;20903;-61
2022/05/22 01:41:11;;;;;;;1.65;0.95;;;;;;;7.24;92.17;99134.75;1792414;78;21321;-61
2022/05/22 01:43:38;;;;;;;1.60;1.10;;;;;;;7.15;92.50;99141.64;1802452;77;21200;-60
2022/05/22 01:46:04;;;;;;;1.60;1.27;;;;;;;7.10;92.59;99138.39;1795051;79;20942;-61
2022/05/22 01:48:31;;;;;;;1.97;1.23;;;;;;;7.10;92.59;99137.09;1799529;79;20943;-60
2022/05/22 01:50:58;;;;;;;2.62;2.02;;;;;;;7.11;92.24;99136.17;1794211;79;20951;-60
2022/05/22 01:53:25;;;;;;;2.22;1.47;;;;;;;7.10;92.83;99144.42;1789134;77;20953;-60
2022/05/22 01:55:52;;;;;;;3.98;1.67;;;;;;;7.09;92.28;99150.98;1789286;77;21196;-61
2022/05/22 01:58:19;;;;;;;2.08;1.25;;;;;;;7.08;92.47;99150.58;1793534;77;20883;-61
2022/05/22 02:00:46;;;;;;;2.00;1.80;;;;;;;7.09;92.42;99145.80;1797653;77;20963;-60
2022/05/22 02:03:13;;;;;;;4.10;1.35;;;;;;;7.09;92.41;99153.58;1795320;77;20950;-60
2022/05/22 02:05:40;;;;;;;2.35;1.60;;;;;;;7.07;92.27;99154.94;1785633;77;21118;-60
2022/05/22 02:08:19;;;;;;;3.67;1.55;;;;;;;7.07;92.22;99150.20;1798759;77;21248;-61
2022/05/22 02:10:59;;;;;;;3.02;1.37;;;;;;;7.05;92.63;99149.41;1758247;80;21155;-61
2022/05/22 02:13:34;;;;;;;3.15;1.60;;;;;;;7.06;92.49;99151.12;1780211;80;20942;-61
2022/05/22 02:16:00;;;;;;;2.22;1.47;;;;;;;7.06;92.39;99158.91;1784738;79;20940;-60
2022/05/22 02:18:27;;;;;;;1.70;1.50;;;;;;;7.03;92.34;99157.28;1775681;80;20998;-60
2022/05/22 02:20:54;;;;;;;1.60;1.50;;;;;;;7.02;92.37;99159.92;1788808;78;21994;-60
2022/05/22 02:23:20;;;;;;;1.95;1.42;;;;;;;7.00;92.50;99161.73;1785690;78;20930;-61
2022/05/22 02:25:51;;;;;;;5.13;1.40;;;;;;;6.98;92.51;99157.08;1779519;78;20914;-60
2022/05/22 02:28:19;;;;;;;3.98;1.70;;;;;;;6.97;92.20;99156.67;1777881;80;20942;-60
2022/05/22 02:30:50;;;;;;;4.25;1.75;;;;;;;6.93;92.45;99160.70;1778441;78;20975;-60
2022/05/22 02:33:17;;;;;;;4.60;1.80;;;;;;;6.91;92.18;99163.80;1781020;78;21047;-60
2022/05/22 02:35:44;;;;;;;1.90;1.40;;;;;;;6.90;92.15;99164.72;1776354;79;20906;-61
2022/05/22 02:38:11;;;;;;;2.97;1.50;;;;;;;6.90;92.01;99158.23;1811880;78;20987;-61
2022/05/22 02:40:39;;;;;;;2.60;2.00;;;;;;;6.88;91.97;99163.93;1817945;77;20935;-60
2022/05/22 02:43:06;;;;;;;1.70;1.37;;;;;;;6.88;92.12;99158.73;1812451;78;20930;-61
2022/05/22 02:45:37;;;;;;;3.25;2.00;;;;;;;6.89;92.08;99156.55;1813451;77;21015;-60
2022/05/22 02:48:07;;;;;;;3.98;1.80;;;;;;;6.90;91.97;99160.83;1809124;77;20906;-61
2022/05/22 02:50:35;;;;;;;4.08;2.02;;;;;;;6.91;91.97;99153.42;1826193;77;20914;-60
2022/05/22 02:53:01;;;;;;;3.37;2.02;;;;;;;6.92;91.96;99148.64;1823812;77;20892;-61
2022/05/22 02:55:28;;;;;;;3.67;1.77;;;;;;;6.92;92.01;99151.23;1813123;77;21413;-61
2022/05/22 02:57:55;;;;;;;2.15;1.60;;;;;;;6.94;91.94;99153.29;1799873;78;21179;-60
2022/05/22 03:00:26;;;;;;;2.95;1.72;;;;;;;6.99;92.04;99167.84;1798364;78;20933;-61
2022/05/22 03:02:53;;;;;;;2.05;1.72;;;;;;;7.01;91.95;99159.09;1780121;79;21657;-60
2022/05/22 03:05:20;;;;;;;2.65;1.70;;;;;;;7.09;92.25;99156.18;1794369;78;20956;-60
2022/05/22 03:07:48;;;;;;;2.02;1.80;;;;;;;7.22;92.14;99159.92;1793167;78;20930;-60
2022/05/22 03:10:17;;;;;;;2.12;1.65;;;;;;;7.76;93.40;99154.55;1793472;78;21423;-61
2022/05/22 03:12:44;;;;;;;2.80;2.00;;;;;;;8.75;93.43;99144.32;1763029;79;21033;-61
2022/05/22 03:15:14;;;;;;;2.20;1.42;;;;;;;9.64;92.70;99153.68;1789822;78;20878;-61
2022/05/22 03:17:40;;;;;;;1.27;0.98;;;;;;;10.62;91.96;99146.70;1793224;79;20891;-61
2022/05/22 03:20:08;;;;;;;3.62;1.30;;;;;;;11.47;90.79;99142.61;1790545;78;20966;-61
2022/05/22 03:22:35;;;;;;;1.47;1.07;;;;;;;11.78;89.30;99147.64;1793413;78;21174;-61
2022/05/22 03:25:04;;;;;;;1.72;1.32;;;;;;;12.34;90.18;99139.00;1782013;79;21445;-61
2022/05/22 03:27:31;;;;;;;2.10;1.20;;;;;;;12.73;86.92;99128.56;1786009;79;20896;-61
2022/05/22 03:29:57;;;;;;;2.90;1.50;;;;;;;13.04;86.51;99133.56;1788445;79;20911;-62
2022/05/22 03:32:25;;;;;;;2.45;1.17;;;;;;;12.84;85.42;99136.20;1786106;78;20961;-61
2022/05/22 03:34:52;;;;;;;2.87;1.27;;;;;;;12.92;85.89;99139.16;1789461;78;21121;-62
2022/05/22 03:37:19;;;;;;;2.12;1.35;;;;;;;13.18;85.80;99146.58;1790042;79;21432;-62
2022/05/22 03:39:46;;;;;;;1.98;1.17;;;;;;;13.30;85.17;99144.94;1793259;79;20937;-62
2022/05/22 03:42:13;;;;;;;1.20;1.10;;;;;;;13.13;84.86;99146.87;1786539;79;20928;-61
2022/05/22 03:44:39;;;;;;;2.08;1.27;;;;;;;12.26;82.57;99148.17;1789619;79;20960;-61
2022/05/22 03:47:06;;;;;;;1.57;1.20;;;;;;;11.51;84.36;99149.32;1795939;79;21043;-61
2022/05/22 03:49:33;;;;;;;3.52;1.47;;;;;;;11.25;85.17;99145.66;1796337;79;21386;-61
2022/05/22 03:52:00;;;;;;;1.32;1.10;;;;;;;11.07;84.73;99148.89;1785225;78;20862;-61
2022/05/22 03:54:27;;;;;;;2.27;1.42;;;;;;;11.05;85.41;99152.05;1788185;78;21423;-61
2022/05/22 03:56:54;;;;;;;2.65;1.42;;;;;;;11.10;84.67;99150.86;1786512;79;20965;-61
2022/05/22 03:59:21;;;;;;;1.70;1.20;;;;;;;10.66;84.60;99153.41;1785468;79;21026;-61
2022/05/22 04:01:48;;;;;;;2.83;1.75;;;;;;;10.34;85.33;99156.06;1788597;78;20938;-61
2022/05/22 04:04:15;;;;;;;1.30;1.17;;;;;;;10.04;85.25;99156.77;1799659;78;21407;-61
2022/05/22 04:06:41;;;;;;;1.93;1.17;;;;;;;9.94;85.68;99150.38;1794773;79;20878;-61
2022/05/22 04:09:08;;;;;;;1.30;1.15;;;;;;;9.71;85.78;99157.27;1784691;78;20946;-61
2022/05/22 04:11:35;;;;;;;2.83;1.60;;;;;;;9.43;85.87;99157.39;1807231;78;21030;-61
2022/05/22 04:14:02;;;;;;;2.10;1.33;;;;;;;9.30;86.34;99157.63;1767247;78;20886;-61
2022/05/22 04:16:29;;;;;;;2.95;1.40;;;;;;;9.26;86.67;99157.42;1815551;77;20926;-60
2022/05/22 04:18:58;;;;;;;2.97;1.33;;;;;;;9.26;86.77;99152.21;1810029;78;20938;-61
2022/05/22 04:21:25;;;;;;;2.47;1.30;;;;;;;9.29;86.52;99146.84;1812875;78;21440;-61
2022/05/22 04:26:36;;;;;;;1.30;1.20;;;;;;;9.31;86.45;99147.61;1777319;80;21520;-61
2022/05/22 04:29:03;;;;;;;1.87;1.30;;;;;;;9.79;86.90;99156.40;1790768;78;20934;-61
2022/05/22 04:31:30;;;;;;;2.65;1.40;;;;;;;10.52;86.33;99157.63;1815574;78;21435;-61
2022/05/22 04:33:56;;;;;;;1.27;1.15;;;;;;;10.77;85.62;99163.25;1809803;77;20894;-61
2022/05/22 04:36:23;;;;;;;2.45;1.42;;;;;;;11.41;85.19;99152.49;1802021;77;21068;-62
2022/05/22 04:38:50;;;;;;;1.22;1.10;;;;;;;11.83;82.71;99153.44;1797063;78;21489;-62
2022/05/22 04:41:18;;;;;;;2.35;1.30;;;;;;;12.97;85.99;99148.87;1798264;78;20907;-62
2022/05/22 04:43:45;;;;;;;1.98;1.10;;;;;;;14.08;83.35;99153.48;1797355;78;20946;-62
2022/05/22 04:46:11;;;;;;;4.17;1.27;;;;;;;14.74;83.00;99146.14;1799402;78;20910;-62
2022/05/22 04:48:38;;;;;;;1.90;1.00;;;;;;;15.29;74.92;99166.19;1785897;78;21010;-62
2022/05/22 04:51:10;;;;;;;1.42;1.10;;;;;;;15.70;77.81;99159.56;1776604;78;20913;-62
2022/05/22 04:53:37;;;;;;;1.65;1.20;;;;;;;15.11;74.45;99166.23;1772743;78;20851;-62
2022/05/22 04:56:06;;;;;;;2.45;1.45;;;;;;;13.23;71.67;99184.30;1783247;78;21493;-62
2022/05/22 04:58:33;;;;;;;1.80;1.20;;;;;;;12.08;74.95;99174.20;1809694;77;20966;-61
2022/05/22 05:01:07;;;;;;;1.92;1.37;;;;;;;11.49;77.49;99169.03;1801049;78;21079;-61
2022/05/22 05:03:34;;;;;;;3.37;1.10;;;;;;;11.49;79.08;99165.59;1810023;78;20910;-61
2022/05/22 05:06:02;;;;;;;2.25;1.15;;;;;;;12.76;79.50;99167.65;1800427;78;20967;-62
2022/05/22 05:08:32;;;;;;;5.70;1.37;;;;;;;12.66;77.59;99174.45;1797578;78;20964;-62
2022/05/22 05:11:00;;;;;;;2.02;1.15;;;;;;;11.75;74.04;99178.39;1795260;78;20933;-61
2022/05/22 05:13:27;;;;;;;4.00;1.35;;;;;;;11.09;76.22;99182.28;1802234;78;20970;-60
2022/05/22 05:16:01;;;;;;;;;;;;;;;10.76;76.59;99193.75;1805779;78;21452;-61
2022/05/22 05:18:30;;;;;;;2.77;1.22;;;;;;;10.41;75.21;99186.09;1798481;78;20109;-61
2022/05/22 05:21:01;;;;;;;4.12;1.20;;;;;;;10.00;76.75;99196.16;1801736;77;20990;-61
2022/05/22 05:23:29;;;;;;;5.62;1.65;;;;;;;9.78;76.29;99196.44;1801089;78;21624;-61
2022/05/22 05:25:56;;;;;;;3.20;1.40;;;;;;;9.61;76.75;99199.46;1803120;78;21488;-60
2022/05/22 05:28:23;;;;;;;2.50;1.30;;;;;;;9.43;75.71;99199.55;1802044;78;20932;-59
2022/05/22 05:30:49;;;;;;;2.52;1.32;;;;;;;9.29;76.74;99201.55;1771640;78;21834;-61
2022/05/22 05:33:16;;;;;;;3.20;1.72;;;;;;;9.24;77.55;99203.06;1802654;78;20973;-60
2022/05/22 05:35:44;;;;;;;3.80;1.70;;;;;;;9.18;77.52;99196.41;1804497;77;20867;-61
2022/05/22 05:38:11;;;;;;;2.87;1.57;;;;;;;9.16;77.87;99197.42;1805442;78;21179;-61
2022/05/22 05:40:39;;;;;;;3.65;1.90;;;;;;;9.22;78.31;99200.19;1767895;78;20958;-60
2022/05/22 05:43:06;;;;;;;2.72;2.00;;;;;;;9.28;78.34;99197.27;1818240;78;21472;-60
2022/05/22 05:45:33;;;;;;;2.17;1.77;;;;;;;9.36;78.27;99202.94;1792264;78;20926;-60
2022/05/22 05:48:00;;;;;;;2.72;1.40;;;;;;;9.36;77.84;99197.73;1817134;78;20957;-60
2022/05/22 05:50:27;;;;;;;2.80;1.42;;;;;;;9.34;77.89;99204.77;1794429;78;21024;-61
2022/05/22 05:53:01;;;;;;;3.50;1.60;;;;;;;9.37;78.11;99210.66;1785381;78;20968;-61
2022/05/22 05:55:29;;;;;;;3.35;1.70;;;;;;;9.39;78.07;99209.30;1779993;78;20891;-60
2022/05/22 05:57:56;;;;;;;3.20;1.60;;;;;;;9.30;77.84;99217.55;1793404;78;21499;-61
2022/05/22 06:00:25;;;;;;;3.30;1.60;;;;;;;9.24;77.99;99215.25;1790254;78;20909;-60
2022/05/22 06:02:53;;;;;;;3.35;1.72;;;;;;;9.17;77.92;99217.34;1793628;78;21092;-60
2022/05/22 06:05:22;;;;;;;1.57;1.45;;;;;;;9.10;78.07;99225.92;1797328;78;20898;-60
2022/05/22 06:07:51;;;;;;;4.35;1.55;;;;;;;9.04;78.20;99226.20;1792052;78;20894;-60
2022/05/22 06:10:20;;;;;;;3.08;1.30;;;;;;;9.00;77.94;99231.19;1800138;79;20941;-60
2022/05/22 06:12:46;;;;;;;2.52;1.50;;;;;;;9.01;78.22;99226.35;1794326;78;20967;-60
2022/05/22 06:15:14;;;;;;;2.80;1.57;;;;;;;9.01;78.25;99231.56;1760790;79;21138;-61
2022/05/22 06:17:46;;;;;;;;;;;;;;;9.00;78.33;99232.48;1792694;78;20870;-61
2022/05/22 06:20:17;;;;;;;3.25;1.80;;;;;;;9.05;78.42;99240.92;1790013;78;20448;-60
2022/05/22 06:22:44;;;;;;;2.00;1.30;;;;;;;9.17;78.61;99237.70;1792784;78;21939;-61
2022/05/22 06:25:13;;;;;;;;;;;;;;;9.29;78.50;99232.81;1793006;78;20984;-60
2022/05/22 06:27:41;;;;;;;1.95;1.35;;;;;;;9.34;78.45;99238.64;1795383;78;21192;-60
2022/05/22 06:30:08;;;;;;;;;;;;;;;9.38;78.28;99234.95;1801966;78;20949;-61
2022/05/22 06:32:35;;;;;;;;;;;;;;;9.35;77.67;99240.31;1792904;78;20094;-60
2022/05/22 06:35:01;;;;;;;3.77;1.42;;;;;;;9.32;78.23;99236.56;1795465;79;20437;-60
2022/05/22 06:37:28;;;;;;;3.53;1.60;;;;;;;9.32;78.53;99236.09;1790092;78;21618;-61
2022/05/22 06:39:55;;;;;;;3.98;1.40;;;;;;;9.36;78.36;99242.86;1792812;78;21085;-61
2022/05/22 06:42:29;;;;;;;3.40;1.57;;;;;;;9.19;78.30;99204.62;1787639;79;21432;-60
2022/05/22 06:45:01;;;;;;;2.62;1.42;;;;;;;9.51;78.44;99234.72;1764822;79;20930;-61
2022/05/22 06:47:30;;;;;;;4.28;1.85;;;;;;;9.62;77.97;99244.61;1795349;78;21084;-60
2022/05/22 06:49:58;;;;;;;4.62;1.60;;;;;;;9.76;78.18;99239.99;1798556;78;20898;-61
2022/05/22 06:52:26;;;;;;;2.85;1.60;;;;;;;9.96;77.84;99241.56;1791506;78;21412;-60
2022/05/22 06:54:53;;;;;;;4.90;1.67;;;;;;;10.11;76.96;99245.12;1797286;78;20886;-60
2022/05/22 06:57:21;;;;;;;4.20;1.40;;;;;;;10.26;77.44;99246.93;1796573;79;20981;-62
2022/05/22 06:59:53;;;;;;;3.05;1.55;;;;;;;10.44;77.04;99251.17;1792758;78;20969;-61
2022/05/22 07:02:20;;;;;;;2.67;1.70;;;;;;;10.53;77.49;99244.64;1792257;79;20981;-61
2022/05/22 07:04:47;;;;;;;5.03;1.82;;;;;;;10.73;78.00;99240.92;1793985;79;21259;-62
2022/05/22 07:07:13;;;;;;;3.33;1.98;;;;;;;11.01;78.01;99241.97;1794889;78;20879;-62
2022/05/22 07:09:40;;;;;;;3.90;1.53;;;;;;;11.10;75.33;99242.30;1791038;79;20917;-61
2022/05/22 07:12:14;;;;;;;4.60;1.60;;;;;;;11.21;76.72;99241.69;1784597;78;21259;-60
2022/05/22 07:14:51;;;;;;;2.47;1.30;;;;;;;11.33;76.70;99240.97;1760531;79;20953;-61
2022/05/22 07:17:21;;;;;;;2.35;1.57;;;;;;;11.32;76.10;99229.31;1789838;78;20993;-60
2022/05/22 07:19:46;;;;;;;5.15;1.57;;;;;;;11.32;76.10;99229.31;1797291;78;20946;-60
2022/05/22 07:22:13;;;;;;;2.67;1.40;;;;;;;11.46;74.83;99248.12;1787681;78;20949;-60
2022/05/22 07:24:40;;;;;;;4.45;1.70;;;;;;;11.21;74.89;99245.61;1798159;79;20894;-60
2022/05/22 07:27:07;;;;;;;2.33;1.52;;;;;;;11.23;75.44;99238.97;1797894;78;20948;-61
2022/05/22 07:29:34;;;;;;;4.03;1.60;;;;;;;11.37;76.36;99247.72;1797288;78;21053;-59
2022/05/22 07:32:00;;;;;;;2.70;1.42;;;;;;;11.52;75.66;99247.75;1769160;77;21456;-60
2022/05/22 07:34:30;;;;;;;2.75;1.95;;;;;;;11.51;75.53;99248.66;1812616;79;21437;-60
2022/05/22 07:37:01;;;;;;;3.77;1.55;;;;;;;11.26;76.02;99230.95;1805498;78;20887;-61
2022/05/22 07:39:28;;;;;;;2.60;1.82;;;;;;;11.26;76.02;99230.95;1806785;78;20974;-60
2022/05/22 07:41:54;;;;;;;3.30;1.50;;;;;;;11.33;76.28;99251.42;1784926;79;21483;-61
2022/05/22 07:44:22;;;;;;;2.47;1.75;;;;;;;11.35;76.50;99257.41;1776210;79;20875;-61
2022/05/22 07:46:49;;;;;;;3.27;1.57;;;;;;;11.26;75.68;99255.34;1796909;79;27360;-60
2022/05/22 07:52:06;;;;;;;2.55;1.62;;;;;;;11.02;75.92;99260.64;1791061;78;20966;-62
2022/05/22 07:54:40;;;;;;;3.02;1.50;;;;;;;11.00;76.34;99260.72;1808877;78;21006;-61
2022/05/22 07:57:07;;;;;;;2.05;1.50;;;;;;;10.98;76.26;99251.68;1801772;78;21429;-61
2022/05/22 07:59:36;;;;;;;2.85;1.50;;;;;;;10.97;76.09;99259.12;1769730;78;21005;-61
2022/05/22 08:02:05;;;;;;;3.30;1.65;;;;;;;10.91;76.38;99258.16;1807341;78;20876;-63
2022/05/22 08:04:32;;;;;;;3.08;1.92;;;;;;;10.91;76.38;99258.16;1805282;78;20855;-61
2022/05/22 08:06:59;;;;;;;3.27;1.82;;;;;;;10.95;76.36;99257.08;1812855;78;21191;-61
2022/05/22 08:09:26;;;;;;;1.60;1.22;;;;;;;11.00;76.13;99261.19;1768218;79;20907;-61
2022/05/22 08:11:52;;;;;;;7.65;2.20;;;;;;;11.05;75.84;99265.23;1789418;78;21428;-61
2022/05/22 08:14:19;;;;;;;3.02;1.75;;;;;;;11.03;75.11;99262.32;1789664;79;20952;-61
2022/05/22 08:16:46;;;;;;;3.55;1.50;;;;;;;11.13;74.53;99260.88;1794679;78;20944;-61
2022/05/22 08:19:13;;;;;;;3.23;1.70;;;;;;;11.29;74.99;99262.17;1792782;78;21894;-61
2022/05/22 08:21:40;;;;;;;2.98;1.47;;;;;;;11.40;75.16;99257.99;1793956;78;21579;-61
2022/05/22 08:24:07;;;;;;;3.02;1.37;;;;;;;11.66;75.66;99262.16;1796552;78;20957;-61
2022/05/22 08:26:33;;;;;;;3.42;1.60;;;;;;;11.85;75.04;99264.09;1788178;79;20917;-61
2022/05/22 08:29:00;;;;;;;3.33;1.37;;;;;;;12.06;75.58;99261.11;1797346;79;20879;-62
2022/05/22 08:31:31;;;;;;;2.00;1.40;;;;;;;12.30;75.27;99270.09;1796091;78;21042;-62
2022/05/22 08:33:58;;;;;;;1.65;1.12;;;;;;;12.16;72.89;99272.71;1792878;78;20974;-60
2022/05/22 08:36:25;;;;;;;2.80;1.57;;;;;;;12.02;73.42;99272.70;1797110;79;20917;-61
2022/05/22 08:38:52;;;;;;;3.60;1.50;;;;;;;11.91;72.17;99272.52;1796157;79;20995;-61
2022/05/22 08:41:32;;;;;;;5.70;1.40;;;;;;;11.83;73.02;99280.78;1798147;78;21111;-60
2022/05/22 08:44:13;;;;;;;2.90;1.60;;;;;;;11.91;73.83;99288.21;1797986;79;21249;-62
2022/05/22 08:47:07;;;;;;;3.62;1.37;;;;;;;12.06;73.92;99277.64;1774097;79;20925;-61
2022/05/22 08:50:04;;;;;;;9.45;2.58;;;;;;;12.03;71.44;99288.30;1793290;79;21459;-61
2022/05/22 08:52:54;;;;;;;7.03;2.20;;;;;;;12.02;73.29;99283.17;1796780;79;20945;-62
2022/05/22 09:01:21;;;;;;;5.75;2.17;;;;;;;12.30;72.19;99293.64;1799529;78;20137;-61
2022/05/22 09:04:22;;;;;;;4.62;1.50;;;;;;;12.05;69.93;99285.13;1767134;79;21420;-61
2022/05/22 09:07:30;;;;;;;3.52;1.62;;;;;;;11.89;70.80;99295.30;1798326;79;20959;-65
2022/05/22 09:10:02;;;;;;;3.75;1.60;;;;;;;11.75;71.82;99283.84;1798281;78;20910;-61
2022/05/22 09:12:49;;;;;;;3.45;2.27;;;;;;;11.89;72.69;99288.76;1802950;78;21196;-62
2022/05/22 09:15:41;;;;;;;3.33;1.55;;;;;;;12.16;72.63;99283.18;1791424;79;21022;-61
2022/05/22 09:18:25;;;;;;;3.52;1.95;;;;;;;12.49;72.15;99289.44;1799383;79;21402;-61
2022/05/22 09:21:19;;;;;;;3.62;1.47;;;;;;;12.47;71.60;99299.63;1802120;78;20888;-61
2022/05/22 09:24:02;;;;;;;5.33;1.75;;;;;;;12.24;71.21;99299.73;1796916;79;20917;-62
2022/05/22 09:26:46;;;;;;;5.15;2.05;;;;;;;12.08;72.17;99301.13;1801937;78;21370;-62
2022/05/22 09:29:37;;;;;;;4.22;2.20;;;;;;;12.00;71.85;99311.20;1800162;78;21477;-62
2022/05/22 09:32:20;;;;;;;5.25;1.70;;;;;;;11.89;71.43;99313.61;1802021;79;20977;-65
2022/05/22 09:35:16;;;;;;;3.33;1.62;;;;;;;11.72;71.41;99316.72;1781677;79;21457;-62
2022/05/22 09:38:22;;;;;;;3.58;1.77;;;;;;;11.69;71.58;99310.36;1792637;79;20850;-62
2022/05/22 09:41:01;;;;;;;3.47;1.62;;;;;;;11.62;71.15;99318.17;1798732;78;21970;-62
2022/05/22 09:43:41;;;;;;;4.70;1.80;;;;;;;11.52;71.54;99320.95;1775057;78;20961;-63
2022/05/22 09:47:00;;;;;;;4.45;1.87;;;;;;;11.57;72.43;99325.47;1798457;78;20907;-62
2022/05/22 09:49:53;;;;;;;3.30;1.72;;;;;;;11.71;72.00;99318.97;1797775;78;20975;-62
2022/05/22 09:52:37;;;;;;;2.80;1.57;;;;;;;11.66;71.26;99327.54;1798952;79;20967;-62
2022/05/22 09:55:17;;;;;;;7.45;2.20;;;;;;;11.56;71.49;99328.98;1799674;78;21237;-62
2022/05/22 09:58:26;;;;;;;3.15;1.72;;;;;;;11.30;70.73;99332.63;1798391;79;20930;-62
2022/05/22 10:01:04;;;;;;;3.30;2.25;;;;;;;11.17;71.38;99329.02;1802598;79;20898;-61
2022/05/22 10:03:58;;;;;;;4.30;1.67;;;;;;;11.02;71.47;99332.48;1803811;78;21542;-61
2022/05/22 10:06:57;;;;;;;5.35;2.10;;;;;;;11.05;72.05;99332.31;1798175;78;21493;-61
2022/05/22 10:09:48;;;;;;;6.25;1.60;;;;;;;11.06;71.68;99328.77;1766427;79;21470;-62
2022/05/22 10:12:51;;;;;;;3.75;1.75;;;;;;;10.92;72.02;99344.76;1798491;78;20999;-62
2022/05/22 10:15:40;;;;;;;5.90;1.67;;;;;;;10.92;72.02;99344.76;1805906;78;20918;-64
2022/05/22 10:18:26;;;;;;;4.58;1.60;;;;;;;10.85;71.82;99348.62;1790243;79;20960;-60
2022/05/22 10:21:07;;;;;;;5.80;2.10;;;;;;;10.81;72.18;99356.25;1773337;79;20938;-61
2022/05/22 10:24:16;;;;;;;4.85;1.77;;;;;;;10.72;72.09;99354.95;1786210;78;21283;-62
2022/05/22 10:27:16;;;;;;;4.37;1.70;;;;;;;10.56;72.22;99340.19;1730720;81;20989;-63
2022/05/22 10:29:51;;;;;;;4.00;1.90;;;;;;;10.55;72.34;99351.56;1753725;80;20908;-61
2022/05/22 10:32:41;;;;;;;9.78;2.15;;;;;;;10.67;72.77;99356.13;1763596;80;20908;-61
2022/05/22 10:35:42;;;;;;;4.70;2.58;;;;;;;10.82;72.70;99365.77;1742510;81;21480;-61
2022/05/22 10:38:20;;;;;;;5.78;2.02;;;;;;;11.01;72.44;99366.05;1740621;81;21032;-60
2022/05/22 10:43:42;;;;;;;5.22;1.70;;;;;;;11.07;72.05;99374.89;1724042;81;20982;-61
2022/05/22 10:46:09;;;;;;;4.72;1.77;;;;;;;11.08;72.25;99373.95;1739382;80;21008;-61
2022/05/22 10:48:54;;;;;;;2.37;1.50;;;;;;;11.00;70.66;99383.97;1780282;79;21001;-60
2022/05/22 10:51:25;;;;;;;3.62;1.80;;;;;;;10.96;71.72;99375.00;1776193;79;21884;-61
2022/05/22 10:53:59;;;;;;;8.08;2.00;;;;;;;10.87;72.02;99358.52;1776753;79;20899;-61
2022/05/22 10:56:33;;;;;;;3.92;2.12;;;;;;;10.87;72.02;99358.52;1775739;79;20948;-61
2022/05/22 10:59:07;;;;;;;3.00;1.98;;;;;;;11.03;72.20;99370.73;1774431;79;21021;-60
2022/05/22 11:01:40;;;;;;;4.47;1.75;;;;;;;11.14;72.12;99377.05;1791496;77;21045;-61
2022/05/22 11:04:13;;;;;;;8.03;3.33;;;;;;;11.06;71.96;99375.80;1850192;76;21823;-60
2022/05/22 11:06:56;;;;;;;5.90;1.90;;;;;;;11.06;71.96;99375.80;1848313;76;20927;-61
2022/05/22 11:09:30;;;;;;;5.17;2.10;;;;;;;11.07;72.35;99390.56;1849309;76;20986;-61
2022/05/22 11:12:17;;;;;;;2.98;2.00;;;;;;;11.07;72.42;99386.64;1849414;76;20943;-63
2022/05/22 11:14:43;;;;;;;5.03;1.93;;;;;;;11.17;72.67;99383.88;1848480;76;20950;-60
2022/05/22 11:17:22;;;;;;;4.95;1.75;;;;;;;11.17;71.67;99386.50;1844168;75;21014;-61
2022/05/22 11:19:53;;;;;;;6.12;1.90;;;;;;;11.10;71.93;99390.39;1844072;77;20912;-61
2022/05/22 11:22:40;;;;;;;3.85;2.05;;;;;;;11.25;71.79;99394.77;1812278;77;20904;-61
2022/05/22 11:25:36;;;;;;;2.80;2.00;;;;;;;11.25;71.79;99394.77;1830153;77;21420;-61
2022/05/22 11:28:09;;;;;;;5.60;1.87;;;;;;;11.29;72.20;99391.06;1808124;77;20843;-60
2022/05/22 11:30:57;;;;;;;3.95;1.62;;;;;;;11.33;71.64;99376.05;1842669;76;22041;-60
2022/05/22 11:33:46;;;;;;;3.52;1.62;;;;;;;11.33;71.64;99376.05;1782189;78;21853;-61
2022/05/22 11:36:43;;;;;;;2.72;1.52;;;;;;;11.39;71.83;99376.53;1808509;78;20938;-62
2022/05/22 11:39:22;;;;;;;3.47;1.70;;;;;;;11.78;71.87;99390.89;1820151;78;20968;-61
2022/05/22 11:42:03;;;;;;;5.47;2.20;;;;;;;12.01;72.07;99390.90;1771375;80;21480;-61
2022/05/22 11:44:44;;;;;;;3.85;1.47;;;;;;;12.41;71.86;99394.27;1789424;79;21124;-62
2022/05/22 11:47:41;;;;;;;7.30;2.00;;;;;;;12.50;70.89;99396.33;1808784;78;20926;-60
2022/05/22 11:50:25;;;;;;;4.20;1.90;;;;;;;12.74;70.87;99392.22;1821939;77;20973;-61
2022/05/22 11:53:36;;;;;;;5.67;1.80;;;;;;;12.79;69.83;99397.63;1805650;78;20937;-61
2022/05/22 11:56:48;;;;;;;3.55;1.70;;;;;;;13.02;71.59;99400.97;1822770;78;20878;-61
2022/05/22 11:59:46;;;;;;;4.90;1.62;;;;;;;13.04;69.29;99401.72;1781023;80;21847;-61
2022/05/22 12:02:55;;;;;;;4.70;2.00;;;;;;;12.75;69.17;99409.61;1795914;78;20913;-62
2022/05/22 12:05:42;;;;;;;4.12;2.30;;;;;;;12.52;68.38;99399.70;1790874;78;21523;-62
2022/05/22 12:08:42;;;;;;;4.03;1.72;;;;;;;12.66;69.76;99403.63;1789564;79;20924;-61
2022/05/22 12:11:38;;;;;;;2.05;1.50;;;;;;;12.93;69.93;99405.00;1791716;79;20860;-61
2022/05/22 12:14:22;;;;;;;3.47;1.85;;;;;;;13.36;70.16;99397.11;1790271;78;21873;-61
2022/05/22 12:16:59;;;;;;;3.25;1.80;;;;;;;13.44;67.74;99396.59;1797392;78;20952;-61
2022/05/22 12:19:49;;;;;;;9.75;1.75;;;;;;;13.44;68.79;99393.98;1764285;78;32667;-60
2022/05/22 12:22:22;;;;;;;4.00;2.27;;;;;;;13.64;66.94;99398.80;1794774;78;21531;-61